createdAt,value
2022-10-05T00:01:32.016Z,100695.06
2022-10-05T00:06:33.596Z,100684.38
2022-10-05T00:11:35.124Z,100678.56
2022-10-05T00:16:36.697Z,100689.53
2022-10-05T00:21:38.198Z,100687.16
2022-10-05T00:26:39.800Z,100682.44
2022-10-05T00:31:41.358Z,100668.56
2022-10-05T00:36:43.858Z,100676.34
2022-10-05T00:42:15.408Z,100668.34
2022-10-05T00:47:46.343Z,100664.91
2022-10-05T00:52:50.953Z,100670.44
2022-10-05T00:58:07.761Z,100671.09
2022-10-05T01:03:19.285Z,100663.72
2022-10-05T01:08:43.510Z,100671.59
2022-10-05T01:14:12.130Z,100670.84
2022-10-05T01:19:29.317Z,100665.84
2022-10-05T01:24:55.954Z,100659.38
2022-10-05T01:30:02.331Z,100659.97
2022-10-05T01:35:29.006Z,100656.50
2022-10-05T01:40:34.938Z,100645.06
2022-10-05T01:45:47.655Z,100635.13
2022-10-05T01:51:22.693Z,100628.13
2022-10-05T01:56:29.942Z,100638.13
2022-10-05T02:01:38.039Z,100628.38
2022-10-05T02:06:42.437Z,100630.22
2022-10-05T02:11:49.415Z,100624.59
2022-10-05T02:16:52.005Z,100631.25
2022-10-05T02:21:58.545Z,100647.50
2022-10-05T02:27:00.741Z,100635.25
2022-10-05T02:32:10.449Z,100635.19
2022-10-05T02:37:30.546Z,100642.97
2022-10-05T02:43:17.126Z,100637.88
2022-10-05T02:48:26.473Z,100643.25
2022-10-05T02:54:19.551Z,100632.72
2022-10-05T02:59:38.334Z,100616.19
2022-10-05T03:04:44.925Z,100617.22
2022-10-05T03:10:05.854Z,100610.13
2022-10-05T03:15:23.788Z,100607.34
2022-10-05T03:20:43.282Z,100606.81
2022-10-05T03:26:11.263Z,100606.25
2022-10-05T03:31:33.903Z,100611.44
2022-10-05T03:36:50.358Z,100616.94
2022-10-05T03:42:06.426Z,100619.72
2022-10-05T03:47:13.427Z,100616.97
2022-10-05T03:52:19.004Z,100627.66
2022-10-05T03:57:24.729Z,100621.81
2022-10-05T04:02:31.398Z,100629.47
2022-10-05T04:08:06.521Z,100623.38
2022-10-05T04:13:37.707Z,100631.41
2022-10-05T04:18:48.358Z,100635.22
2022-10-05T04:24:19.191Z,100638.44
2022-10-05T04:29:31.123Z,100636.09
2022-10-05T04:34:59.448Z,100625.97
2022-10-05T04:40:09.043Z,100638.09
2022-10-05T04:45:45.486Z,100636.53
2022-10-05T04:50:53.135Z,100654.56
2022-10-05T04:56:16.382Z,100647.66
2022-10-05T05:01:43.671Z,100651.63
2022-10-05T05:06:53.475Z,100647.38
2022-10-05T05:12:04.025Z,100653.59
2022-10-05T05:17:14.996Z,100657.97
2022-10-05T05:22:29.002Z,100658.81
2022-10-05T05:28:03.885Z,100654.91
2022-10-05T05:33:27.249Z,100658.38
2022-10-05T05:38:46.943Z,100662.91
2022-10-05T05:43:53.218Z,100659.78
2022-10-05T05:48:56.469Z,100666.28
2022-10-05T05:54:16.406Z,100669.59
2022-10-05T05:59:29.036Z,100671.91
2022-10-05T06:04:39.276Z,100678.41
2022-10-05T06:09:47.289Z,100683.03
2022-10-05T06:15:04.026Z,100666.28
2022-10-05T06:20:17.064Z,100667.56
2022-10-05T06:25:34.538Z,100663.47
2022-10-05T06:30:38.952Z,100661.03
2022-10-05T06:35:58.950Z,100664.50
2022-10-05T06:41:39.061Z,100651.16
2022-10-05T06:47:04.748Z,100666.91
2022-10-05T06:52:45.959Z,100669.50
2022-10-05T06:58:14.860Z,100655.97
2022-10-05T07:03:42.458Z,100644.66
2022-10-05T07:09:01.236Z,100654.03
2022-10-05T07:14:13.720Z,100659.38
2022-10-05T07:19:21.710Z,100647.94
2022-10-05T07:24:42.916Z,100637.13
2022-10-05T07:30:07.390Z,100639.94
2022-10-05T07:35:42.430Z,100626.50
2022-10-05T07:40:53.074Z,100626.06
2022-10-05T07:46:19.487Z,100628.44
2022-10-05T07:51:34.383Z,100625.19
2022-10-05T07:56:45.143Z,100621.53
2022-10-05T08:01:51.967Z,100627.78
2022-10-05T08:06:57.274Z,100638.75
2022-10-05T08:12:09.426Z,100619.66
2022-10-05T08:17:38.561Z,100617.47
2022-10-05T08:22:47.322Z,100618.69
2022-10-05T08:27:53.066Z,100609.63
2022-10-05T08:33:07.062Z,100595.53
2022-10-05T08:38:13.453Z,100594.53
2022-10-05T08:43:47.534Z,100592.53
2022-10-05T08:49:26.671Z,100587.66
2022-10-05T08:54:35.350Z,100589.53
2022-10-05T09:00:07.676Z,100581.44
2022-10-05T09:05:14.806Z,100588.38
2022-10-05T09:10:38.171Z,100572.69
2022-10-05T09:16:00.079Z,100571.03
2022-10-05T09:21:54.669Z,100563.97
2022-10-05T09:27:01.483Z,100561.94
2022-10-05T09:32:36.227Z,100554.34
2022-10-05T09:37:46.313Z,100555.19
2022-10-05T09:42:50.923Z,100553.16
2022-10-05T09:48:09.470Z,100545.88
2022-10-05T09:53:42.517Z,100540.34
2022-10-05T09:59:18.436Z,100535.91
2022-10-05T10:04:30.399Z,100534.22
2022-10-05T10:09:41.087Z,100531.13
2022-10-05T10:15:04.196Z,100534.28
2022-10-05T10:20:42.990Z,100519.91
2022-10-05T10:26:11.727Z,100520.81
2022-10-05T10:31:38.153Z,100519.34
2022-10-05T10:37:11.423Z,100520.81
2022-10-05T10:42:40.400Z,100517.34
2022-10-05T10:47:50.979Z,100508.06
2022-10-05T10:53:10.067Z,100508.72
2022-10-05T11:04:13.823Z,100508.84
2022-10-05T11:09:25.880Z,100506.53
2022-10-05T11:14:58.603Z,100489.59
2022-10-05T11:20:09.226Z,100488.50
2022-10-05T11:25:20.475Z,100488.63
2022-10-05T11:30:47.512Z,100483.13
2022-10-05T11:36:06.976Z,100472.44
2022-10-05T11:41:42.477Z,100474.50
2022-10-05T11:46:59.112Z,100471.31
2022-10-05T11:52:13.977Z,100463.59
2022-10-05T11:57:21.089Z,100460.88
2022-10-05T12:02:45.189Z,100466.97
2022-10-05T12:08:08.724Z,100471.31
2022-10-05T12:13:33.183Z,100464.41
2022-10-05T12:18:39.167Z,100453.19
2022-10-05T12:23:52.369Z,100451.44
2022-10-05T12:29:00.787Z,100443.19
2022-10-05T12:34:21.991Z,100452.91
2022-10-05T12:39:38.609Z,100438.16
2022-10-05T12:44:58.231Z,100432.00
2022-10-05T12:50:21.231Z,100429.91
2022-10-05T12:55:40.111Z,100426.94
2022-10-05T13:01:01.377Z,100420.78
2022-10-05T13:06:04.093Z,100416.91
2022-10-05T13:11:16.930Z,100416.53
2022-10-05T13:16:34.577Z,100413.69
2022-10-05T13:21:57.198Z,100421.47
2022-10-05T13:27:32.002Z,100415.69
2022-10-05T13:32:40.369Z,100413.84
2022-10-05T13:38:17.955Z,100410.13
2022-10-05T13:43:29.799Z,100403.69
2022-10-05T13:48:53.005Z,100404.13
2022-10-05T13:54:01.479Z,100413.75
2022-10-05T13:59:21.867Z,100402.13
2022-10-05T14:04:50.759Z,100402.81
2022-10-05T14:09:52.312Z,100408.84
2022-10-05T14:14:55.751Z,100405.59
2022-10-05T14:20:00.295Z,100403.50
2022-10-05T14:25:01.981Z,100403.88
2022-10-05T14:30:09.549Z,100405.34
2022-10-05T14:35:12.809Z,100400.34
2022-10-05T14:40:35.581Z,100404.00
2022-10-05T14:45:52.873Z,100396.56
2022-10-05T14:50:59.586Z,100400.19
2022-10-05T14:56:04.109Z,100393.28
2022-10-05T15:01:24.106Z,100396.38
2022-10-05T15:06:34.756Z,100390.63
2022-10-05T15:11:42.585Z,100393.16
2022-10-05T15:16:44.421Z,100399.94
2022-10-05T15:22:33.800Z,100398.88
2022-10-05T15:27:56.716Z,100398.13
2022-10-05T15:33:19.997Z,100399.19
2022-10-05T15:38:25.452Z,100403.25
2022-10-05T15:43:36.559Z,100389.22
2022-10-05T15:48:48.473Z,100386.53
2022-10-05T15:54:24.824Z,100393.91
2022-10-05T15:59:37.532Z,100403.47
2022-10-05T16:05:17.255Z,100396.94
2022-10-05T16:10:26.435Z,100399.56
2022-10-05T16:15:42.767Z,100402.84
2022-10-05T16:20:47.296Z,100404.00
2022-10-05T16:26:02.141Z,100400.59
2022-10-05T16:31:18.818Z,100407.16
2022-10-05T16:36:40.326Z,100401.00
2022-10-05T16:41:53.583Z,100406.13
2022-10-05T16:47:01.568Z,100409.97
2022-10-05T16:52:07.717Z,100415.00
2022-10-05T16:57:26.676Z,100417.25
2022-10-05T17:02:46.986Z,100425.75
2022-10-05T17:07:59.121Z,100430.22
2022-10-05T17:13:16.331Z,100425.19
2022-10-05T17:18:45.170Z,100422.19
2022-10-05T17:23:54.456Z,100421.16
2022-10-05T17:29:08.237Z,100417.69
2022-10-05T17:34:18.410Z,100419.09
2022-10-05T17:39:21.873Z,100417.41
2022-10-05T17:44:26.409Z,100408.16
2022-10-05T17:49:34.113Z,100410.59
2022-10-05T17:55:03.743Z,100414.69
2022-10-05T18:00:35.627Z,100407.59
2022-10-05T18:05:37.396Z,100411.06
2022-10-05T18:11:06.795Z,100416.63
2022-10-05T18:16:12.230Z,100421.09
2022-10-05T18:21:13.770Z,100420.31
2022-10-05T18:26:37.480Z,100412.31
2022-10-05T18:31:50.116Z,100435.66
2022-10-05T18:37:31.295Z,100432.34
2022-10-05T18:43:04.040Z,100440.16
2022-10-05T18:48:11.214Z,100436.59
2022-10-05T18:53:24.843Z,100441.38
2022-10-05T18:58:34.087Z,100442.25
2022-10-05T19:03:51.231Z,100457.25
2022-10-05T19:09:09.543Z,100448.72
2022-10-05T19:14:23.743Z,100454.81
2022-10-05T19:19:44.231Z,100461.88
2022-10-05T19:25:40.366Z,100464.63
2022-10-05T19:31:00.285Z,100464.41
2022-10-05T19:36:26.736Z,100478.88
2022-10-05T19:41:43.907Z,100478.53
2022-10-05T19:47:00.147Z,100484.59
2022-10-05T19:52:02.129Z,100489.22
2022-10-05T19:57:10.559Z,100484.22
2022-10-05T20:02:16.021Z,100493.28
2022-10-05T20:07:21.582Z,100496.41
2022-10-05T20:12:52.358Z,100490.47
2022-10-05T20:18:12.502Z,100503.44
2022-10-05T20:23:28.066Z,100514.81
2022-10-05T20:28:31.074Z,100523.13
2022-10-05T20:33:34.370Z,100527.75
2022-10-05T20:38:40.050Z,100527.97
2022-10-05T20:43:42.479Z,100527.84
2022-10-05T20:48:44.520Z,100536.72
2022-10-05T20:53:46.317Z,100539.59
2022-10-05T20:58:47.920Z,100541.78
2022-10-05T21:03:50.665Z,100553.94
2022-10-05T21:08:52.806Z,100557.38
2022-10-05T21:13:54.518Z,100556.47
2022-10-05T21:18:56.029Z,100557.16
2022-10-05T21:23:58.211Z,100564.25
2022-10-05T21:29:00.699Z,100551.50
2022-10-05T21:34:02.559Z,100560.44
2022-10-05T21:39:04.621Z,100555.69
2022-10-05T21:44:06.784Z,100562.41
2022-10-05T21:49:09.427Z,100563.22
2022-10-05T21:54:15.669Z,100551.59
2022-10-05T21:59:19.609Z,100550.13
2022-10-05T22:04:21.120Z,100550.97
2022-10-05T22:09:22.981Z,100550.47
2022-10-05T22:14:24.552Z,100564.28
2022-10-05T22:19:26.237Z,100569.81
2022-10-05T22:24:27.831Z,100566.44
2022-10-05T22:29:29.391Z,100576.38
2022-10-05T22:34:31.297Z,100580.78
2022-10-05T22:39:32.824Z,100588.34
2022-10-05T22:44:34.708Z,100588.16
2022-10-05T22:49:36.252Z,100596.44
2022-10-05T22:54:37.741Z,100600.47
2022-10-05T22:59:39.297Z,100605.66
2022-10-05T23:04:40.902Z,100619.81
2022-10-05T23:09:42.417Z,100619.31
2022-10-05T23:14:43.965Z,100628.56
2022-10-05T23:19:45.447Z,100628.72
2022-10-05T23:24:47.045Z,100633.06
2022-10-05T23:29:48.529Z,100652.28
2022-10-05T23:34:50.429Z,100658.16
2022-10-05T23:39:51.954Z,100657.16
2022-10-05T23:44:53.482Z,100662.22
2022-10-05T23:49:55.433Z,100669.47
2022-10-05T23:54:56.940Z,100670.47
2022-10-05T23:59:58.491Z,100674.66
